createdAt,value
2022-11-05T00:02:30.202Z,0
2022-11-05T00:05:55.441Z,0
2022-11-05T00:09:20.714Z,0
2022-11-05T00:12:46.076Z,0
2022-11-05T00:16:11.238Z,0
2022-11-05T00:19:36.483Z,0
2022-11-05T00:23:01.724Z,0
2022-11-05T00:26:26.985Z,0
2022-11-05T00:29:52.289Z,0
2022-11-05T00:33:17.496Z,0
2022-11-05T00:36:43.449Z,0
2022-11-05T00:40:08.693Z,0
2022-11-05T00:43:33.927Z,0
2022-11-05T00:46:59.990Z,0
2022-11-05T00:50:24.412Z,0
2022-11-05T00:53:49.663Z,0
2022-11-05T00:57:14.906Z,0
2022-11-05T01:00:40.159Z,0
2022-11-05T01:04:05.444Z,0
2022-11-05T01:07:30.661Z,0
2022-11-05T01:10:55.911Z,0
2022-11-05T01:14:21.162Z,0
2022-11-05T01:17:46.396Z,0
2022-11-05T01:21:11.744Z,0
2022-11-05T01:24:36.870Z,0
2022-11-05T01:28:02.150Z,0
2022-11-05T01:31:27.392Z,0
2022-11-05T01:34:52.633Z,0
2022-11-05T01:38:17.899Z,0
2022-11-05T01:41:43.125Z,0
2022-11-05T01:45:08.381Z,0
2022-11-05T01:48:33.637Z,0
2022-11-05T01:51:58.882Z,0
2022-11-05T01:55:24.229Z,0
2022-11-05T01:58:49.373Z,0
2022-11-05T02:02:14.717Z,0
2022-11-05T02:05:39.853Z,0
2022-11-05T02:09:05.117Z,0
2022-11-05T02:12:30.474Z,0
2022-11-05T02:15:55.616Z,0
2022-11-05T02:19:20.862Z,0
2022-11-05T02:22:46.102Z,0
2022-11-05T02:26:11.347Z,0
2022-11-05T02:29:36.638Z,0
2022-11-05T02:33:01.878Z,0
2022-11-05T02:36:27.109Z,0
2022-11-05T02:39:52.380Z,0
2022-11-05T02:43:17.658Z,0
2022-11-05T02:46:42.919Z,0
2022-11-05T02:50:08.136Z,0
2022-11-05T02:53:33.396Z,0
2022-11-05T02:56:58.658Z,0
2022-11-05T03:00:23.915Z,0
2022-11-05T03:03:49.228Z,0
2022-11-05T03:07:14.448Z,0
2022-11-05T03:10:39.709Z,0
2022-11-05T03:14:04.998Z,0
2022-11-05T03:17:30.244Z,0
2022-11-05T03:20:55.527Z,0
2022-11-05T03:24:20.744Z,0
2022-11-05T03:27:45.983Z,0
2022-11-05T03:31:11.236Z,0
2022-11-05T03:34:36.499Z,0
2022-11-05T03:38:01.769Z,0
2022-11-05T03:41:27.003Z,0
2022-11-05T03:44:52.268Z,0
2022-11-05T03:48:17.536Z,0
2022-11-05T03:51:42.755Z,0
2022-11-05T03:55:08.039Z,0
2022-11-05T03:58:33.243Z,0
2022-11-05T04:01:58.580Z,0
2022-11-05T04:05:23.748Z,0
2022-11-05T04:08:48.991Z,0
2022-11-05T04:12:14.385Z,0
2022-11-05T04:15:39.493Z,0
2022-11-05T04:19:04.769Z,0
2022-11-05T04:22:30.037Z,0
2022-11-05T04:25:55.301Z,0
2022-11-05T04:29:20.584Z,0
2022-11-05T04:32:45.815Z,0
2022-11-05T04:36:11.057Z,0
2022-11-05T04:39:36.290Z,0
2022-11-05T04:43:01.564Z,0
2022-11-05T04:46:26.822Z,0
2022-11-05T04:49:52.053Z,0
2022-11-05T04:53:17.313Z,0
2022-11-05T04:56:42.544Z,0
2022-11-05T05:00:07.796Z,0
2022-11-05T05:03:33.054Z,0
2022-11-05T05:06:58.254Z,0
2022-11-05T05:10:23.470Z,0
2022-11-05T05:13:48.738Z,0
2022-11-05T05:17:14.035Z,0
2022-11-05T05:20:39.350Z,0
2022-11-05T05:24:04.615Z,0
2022-11-05T05:27:29.870Z,0
2022-11-05T05:30:58.658Z,0
2022-11-05T05:34:20.454Z,0
2022-11-05T05:37:45.702Z,0
2022-11-05T05:41:10.918Z,0
2022-11-05T05:44:36.156Z,0
2022-11-05T05:48:01.421Z,0
2022-11-05T05:51:26.658Z,0
2022-11-05T05:54:51.929Z,0
2022-11-05T05:58:17.147Z,0
2022-11-05T06:01:42.482Z,0
2022-11-05T06:05:07.617Z,0
2022-11-05T06:08:32.906Z,0
2022-11-05T06:11:58.157Z,0
2022-11-05T06:15:23.433Z,0
2022-11-05T06:18:48.679Z,0
2022-11-05T06:22:13.949Z,0
2022-11-05T06:25:41.309Z,0
2022-11-05T06:29:04.463Z,0
2022-11-05T06:32:29.670Z,0
2022-11-05T06:35:54.914Z,0
2022-11-05T06:39:20.162Z,0
2022-11-05T06:42:45.429Z,0
2022-11-05T06:46:10.687Z,0
2022-11-05T06:49:35.944Z,0
2022-11-05T06:53:01.206Z,0
2022-11-05T06:56:26.433Z,0
2022-11-05T06:59:54.598Z,0
2022-11-05T07:03:16.993Z,0
2022-11-05T07:06:42.212Z,0
2022-11-05T07:10:07.459Z,0
2022-11-05T07:13:32.723Z,0
2022-11-05T07:16:57.973Z,0
2022-11-05T07:20:23.253Z,0
2022-11-05T07:23:48.468Z,0
2022-11-05T07:27:13.731Z,0
2022-11-05T07:30:39.002Z,0
2022-11-05T07:34:04.252Z,0
2022-11-05T07:37:29.622Z,6
2022-11-05T07:40:54.745Z,6
2022-11-05T07:44:19.971Z,6
2022-11-05T07:47:45.240Z,6
2022-11-05T07:51:10.489Z,6
2022-11-05T07:54:35.750Z,6
2022-11-05T07:58:00.987Z,6
2022-11-05T08:01:26.427Z,6
2022-11-05T08:04:51.500Z,6
2022-11-05T08:08:16.779Z,6
2022-11-05T08:11:42.081Z,6
2022-11-05T08:15:07.321Z,6
2022-11-05T08:18:32.590Z,6
2022-11-05T08:21:57.872Z,6
2022-11-05T08:25:23.150Z,6
2022-11-05T08:28:48.454Z,6
2022-11-05T08:32:13.704Z,6
2022-11-05T08:35:38.995Z,6
2022-11-05T08:39:04.294Z,6
2022-11-05T08:42:29.591Z,6
2022-11-05T08:45:54.891Z,6
2022-11-05T08:49:20.157Z,6
2022-11-05T08:52:45.478Z,6
2022-11-05T08:56:10.743Z,6
2022-11-05T08:59:36.048Z,6
2022-11-05T09:03:01.378Z,6
2022-11-05T09:06:26.689Z,6
2022-11-05T09:09:52.043Z,6
2022-11-05T09:13:19.639Z,6
2022-11-05T09:16:42.692Z,6
2022-11-05T09:20:08.123Z,11
2022-11-05T09:23:33.325Z,11
2022-11-05T09:26:58.682Z,11
2022-11-05T09:30:23.993Z,11
2022-11-05T09:33:49.313Z,17
2022-11-05T09:37:14.620Z,17
2022-11-05T09:40:39.888Z,17
2022-11-05T09:44:05.147Z,17
2022-11-05T09:47:30.477Z,17
2022-11-05T09:50:55.808Z,17
2022-11-05T09:54:21.123Z,17
2022-11-05T09:57:46.385Z,17
2022-11-05T10:01:11.747Z,17
2022-11-05T10:04:36.963Z,17
2022-11-05T10:08:02.268Z,17
2022-11-05T10:11:27.653Z,23
2022-11-05T10:14:52.905Z,23
2022-11-05T10:18:18.217Z,23
2022-11-05T10:25:08.844Z,17
2022-11-05T10:28:34.107Z,17
2022-11-05T10:31:59.339Z,17
2022-11-05T10:35:24.609Z,23
2022-11-05T10:38:49.870Z,17
2022-11-05T10:42:15.135Z,17
2022-11-05T10:45:40.418Z,11
2022-11-05T10:49:05.646Z,17
2022-11-05T10:52:30.913Z,17
2022-11-05T10:55:56.181Z,39
2022-11-05T10:59:21.463Z,45
2022-11-05T11:02:46.993Z,39
2022-11-05T11:06:12.560Z,45
2022-11-05T11:09:41.052Z,39
2022-11-05T11:13:06.527Z,39
2022-11-05T11:16:31.853Z,28
2022-11-05T11:19:58.567Z,11
2022-11-05T11:23:26.258Z,17
2022-11-05T11:26:51.771Z,11
2022-11-05T11:30:17.164Z,11
2022-11-05T11:33:42.500Z,11
2022-11-05T11:37:08.525Z,6
2022-11-05T11:40:33.809Z,6
2022-11-05T11:44:00.587Z,6
2022-11-05T11:47:25.966Z,6
2022-11-05T11:50:51.222Z,6
2022-11-05T11:54:18.006Z,6
2022-11-05T11:57:46.052Z,11
2022-11-05T12:01:12.371Z,23
2022-11-05T12:04:38.695Z,23
2022-11-05T12:08:06.712Z,28
2022-11-05T12:11:34.248Z,28
2022-11-05T12:15:02.118Z,23
2022-11-05T12:18:27.749Z,39
2022-11-05T12:21:53.625Z,39
2022-11-05T12:25:18.304Z,34
2022-11-05T12:29:05.002Z,28
2022-11-05T12:32:09.060Z,34
2022-11-05T12:35:34.371Z,34
2022-11-05T12:38:59.645Z,34
2022-11-05T12:42:24.924Z,23
2022-11-05T12:45:50.231Z,23
2022-11-05T12:49:15.494Z,23
2022-11-05T12:52:40.757Z,17
2022-11-05T12:56:06.035Z,11
2022-11-05T12:59:31.355Z,11
2022-11-05T13:02:56.691Z,17
2022-11-05T13:06:21.989Z,11
2022-11-05T13:09:47.314Z,6
2022-11-05T13:13:12.987Z,6
2022-11-05T13:16:37.982Z,6
2022-11-05T13:20:03.314Z,0
2022-11-05T13:23:28.621Z,0
2022-11-05T13:26:53.964Z,0
2022-11-05T13:30:19.277Z,0
2022-11-05T13:33:44.577Z,0
2022-11-05T13:37:09.887Z,0
2022-11-05T13:40:35.165Z,0
2022-11-05T13:44:00.531Z,0
2022-11-05T13:47:25.796Z,0
2022-11-05T13:50:51.132Z,0
2022-11-05T13:54:16.446Z,0
2022-11-05T13:57:41.777Z,0
2022-11-05T14:01:07.182Z,0
2022-11-05T14:04:32.603Z,6
2022-11-05T14:07:57.933Z,6
2022-11-05T14:11:23.432Z,6
2022-11-05T14:14:49.907Z,6
2022-11-05T14:18:14.470Z,6
2022-11-05T14:21:39.866Z,11
2022-11-05T14:25:05.303Z,6
2022-11-05T14:28:30.604Z,6
2022-11-05T15:04:43.073Z,0
2022-11-05T15:08:08.345Z,0
2022-11-05T15:11:33.735Z,0
2022-11-05T15:14:59.143Z,0
2022-11-05T15:18:24.449Z,0
2022-11-05T15:21:49.735Z,0
2022-11-05T15:25:15.070Z,0
2022-11-05T15:28:40.693Z,0
2022-11-05T15:32:06.014Z,0
2022-11-05T15:35:31.486Z,0
2022-11-05T15:39:23.254Z,0
2022-11-05T15:42:22.704Z,0
2022-11-05T15:45:48.043Z,0
2022-11-05T15:49:13.440Z,0
2022-11-05T15:52:38.758Z,0
2022-11-05T15:56:04.352Z,0
2022-11-05T15:59:29.741Z,0
2022-11-05T16:02:56.186Z,0
2022-11-05T16:06:21.579Z,0
2022-11-05T16:09:46.867Z,0
2022-11-05T16:13:12.784Z,0
2022-11-05T16:16:37.839Z,0
2022-11-05T16:20:03.188Z,0
2022-11-05T16:23:28.632Z,0
2022-11-05T16:27:02.858Z,0
2022-11-05T16:30:19.383Z,0
2022-11-05T16:33:44.952Z,0
2022-11-05T16:37:10.401Z,0
2022-11-05T16:40:35.809Z,0
2022-11-05T16:44:03.705Z,0
2022-11-05T16:47:29.533Z,0
2022-11-05T16:50:54.730Z,0
2022-11-05T16:54:21.384Z,0
2022-11-05T16:57:47.259Z,0
2022-11-05T17:01:12.638Z,0
2022-11-05T17:04:37.951Z,0
2022-11-05T17:08:03.290Z,0
2022-11-05T17:11:28.747Z,0
2022-11-05T17:14:54.098Z,0
2022-11-05T17:18:19.723Z,0
2022-11-05T17:21:44.971Z,0
2022-11-05T17:25:11.690Z,0
2022-11-05T17:28:37.408Z,0
2022-11-05T17:32:02.670Z,0
2022-11-05T17:35:27.932Z,0
2022-11-05T17:38:53.502Z,0
2022-11-05T17:42:18.958Z,0
2022-11-05T17:45:44.376Z,0
2022-11-05T17:49:11.937Z,0
2022-11-05T17:52:37.803Z,0
2022-11-05T17:56:03.349Z,0
2022-11-05T17:59:28.966Z,0
2022-11-05T18:02:54.446Z,0
2022-11-05T18:06:20.007Z,0
2022-11-05T18:09:45.435Z,0
2022-11-05T18:13:11.363Z,0
2022-11-05T18:16:36.434Z,0
2022-11-05T18:20:01.859Z,0
2022-11-05T18:23:27.761Z,0
2022-11-05T18:26:54.462Z,0
2022-11-05T18:30:24.547Z,0
2022-11-05T18:34:20.609Z,0
2022-11-05T18:38:24.355Z,0
2022-11-05T18:43:32.771Z,0
2022-11-05T18:47:03.754Z,0
2022-11-05T18:50:39.788Z,0
2022-11-05T18:54:13.356Z,0
2022-11-05T18:57:50.179Z,0
2022-11-05T19:01:26.878Z,0
2022-11-05T19:08:23.638Z,0
2022-11-05T19:11:53.724Z,0
2022-11-05T19:15:24.316Z,0
2022-11-05T19:18:54.787Z,0
2022-11-05T19:22:29.701Z,0
2022-11-05T19:25:59.372Z,0
2022-11-05T19:29:36.622Z,0
2022-11-05T19:33:04.816Z,0
2022-11-05T19:36:45.315Z,0
2022-11-05T19:40:14.068Z,0
2022-11-05T19:43:48.004Z,0
2022-11-05T19:47:30.218Z,0
2022-11-05T19:51:03.100Z,0
2022-11-05T19:54:29.921Z,0
2022-11-05T19:58:03.245Z,0
2022-11-05T20:02:42.474Z,0
2022-11-05T20:06:36.528Z,0
2022-11-05T20:10:05.500Z,0
2022-11-05T20:13:34.435Z,0
2022-11-05T20:17:03.112Z,0
2022-11-05T20:20:28.735Z,0
2022-11-05T20:23:54.061Z,0
2022-11-05T20:27:19.392Z,0
2022-11-05T20:30:44.715Z,0
2022-11-05T20:34:10.061Z,0
2022-11-05T20:37:35.342Z,0
2022-11-05T20:41:01.287Z,0
2022-11-05T20:44:26.560Z,0
2022-11-05T20:47:51.849Z,0
2022-11-05T20:51:17.278Z,0
2022-11-05T20:54:44.356Z,0
2022-11-05T20:58:09.856Z,0
2022-11-05T21:01:35.106Z,0
2022-11-05T21:05:00.312Z,0
2022-11-05T21:08:25.653Z,0
2022-11-05T21:11:50.915Z,0
2022-11-05T21:15:16.203Z,0
2022-11-05T21:18:41.475Z,0
2022-11-05T21:22:06.757Z,0
2022-11-05T21:25:32.072Z,0
2022-11-05T21:28:57.309Z,0
2022-11-05T21:32:22.630Z,0
2022-11-05T21:35:47.890Z,0
2022-11-05T21:39:13.915Z,0
2022-11-05T21:42:38.406Z,0
2022-11-05T21:46:03.696Z,0
2022-11-05T21:49:29.038Z,0
2022-11-05T21:52:54.282Z,0
2022-11-05T21:56:19.826Z,0
2022-11-05T21:59:45.060Z,0
2022-11-05T22:03:10.386Z,0
2022-11-05T22:06:35.895Z,0
2022-11-05T22:10:01.464Z,0
2022-11-05T22:13:27.073Z,0
2022-11-05T22:16:53.534Z,0
2022-11-05T22:20:19.321Z,0
2022-11-05T22:23:44.651Z,0
2022-11-05T22:27:09.920Z,0
2022-11-05T22:30:35.607Z,0
2022-11-05T22:34:00.835Z,0
2022-11-05T22:37:26.118Z,0
2022-11-05T22:40:51.436Z,0
2022-11-05T22:44:16.729Z,0
2022-11-05T22:47:42.060Z,0
2022-11-05T22:51:07.366Z,0
2022-11-05T22:54:38.065Z,0
2022-11-05T22:57:58.233Z,0
2022-11-05T23:01:23.630Z,0
2022-11-05T23:04:48.739Z,0
2022-11-05T23:08:14.256Z,0
2022-11-05T23:11:39.206Z,0
2022-11-05T23:15:04.442Z,0
2022-11-05T23:18:29.706Z,0
2022-11-05T23:21:55.046Z,0
2022-11-05T23:25:20.242Z,0
2022-11-05T23:28:45.460Z,0
2022-11-05T23:32:10.712Z,0
2022-11-05T23:35:35.940Z,0
2022-11-05T23:39:01.231Z,0
2022-11-05T23:42:26.462Z,0
2022-11-05T23:45:51.702Z,0
2022-11-05T23:49:16.964Z,0
2022-11-05T23:52:42.170Z,0
2022-11-05T23:56:07.427Z,0
2022-11-05T23:59:32.629Z,0
